Time;durP1;ratioP1;P1;durP2;ratioP2;P2;SDS_P1;SDS_P2;PMS_P1;PMS_P2;Temp;Humidity;BMP_temperature;BMP_pressure;BME280_temperature;BME280_humidity;BME280_pressure;Samples;Min_cycle;Max_cycle;Signal;HPM_P1;HPM_P2
2022/07/22 00:01:59;;;;;;;16.23;9.18;;;;;;;16.69;100.00;101400.59;5062452;28;20049;-85
2022/07/22 00:04:29;;;;;;;12.68;8.10;;;;;;;16.65;100.00;101408.03;5061754;28;20052;-83
2022/07/22 00:06:55;;;;;;;22.27;9.88;;;;;;;16.72;100.00;101424.84;5060591;28;20049;-85
2022/07/22 00:09:35;;;;;;;13.65;8.40;;;;;;;16.75;100.00;101416.56;5060713;28;20074;-84
2022/07/22 00:12:13;;;;;;;12.15;8.10;;;;;;;16.66;100.00;101401.75;5061742;28;20045;-84
2022/07/22 00:14:44;;;;;;;14.82;8.93;;;;;;;16.73;100.00;101425.66;5042952;28;20071;-84
2022/07/22 00:17:10;;;;;;;12.55;8.70;;;;;;;16.58;100.00;101401.78;5039409;28;20446;-85
2022/07/22 00:19:55;;;;;;;19.85;8.63;;;;;;;16.62;100.00;101405.72;5044148;28;20168;-84
2022/07/22 00:22:22;;;;;;;17.15;8.52;;;;;;;16.68;100.00;101412.97;5065203;28;20061;-84
2022/07/22 00:24:53;;;;;;;18.67;8.68;;;;;;;16.66;100.00;101412.31;5056539;28;20056;-85
2022/07/22 00:27:21;;;;;;;14.82;8.07;;;;;;;16.69;100.00;101414.63;5039110;28;20099;-84
2022/07/22 00:29:50;;;;;;;15.45;9.52;;;;;;;16.59;100.00;101395.50;5038679;28;20465;-83
2022/07/22 00:32:17;;;;;;;15.38;8.57;;;;;;;16.51;100.00;101395.59;5039581;28;20057;-83
2022/07/22 00:34:44;;;;;;;15.65;8.90;;;;;;;16.49;100.00;101402.88;5039485;28;20045;-84
2022/07/22 00:37:11;;;;;;;20.17;9.30;;;;;;;16.46;100.00;101392.66;5038365;28;20065;-83
2022/07/22 00:39:38;;;;;;;14.90;8.98;;;;;;;16.51;100.00;101395.59;5047421;28;20048;-83
2022/07/22 00:45:31;;;;;;;15.75;9.60;;;;;;;16.50;100.00;101394.78;5058566;28;20057;-83
2022/07/22 00:48:00;;;;;;;18.73;9.55;;;;;;;16.54;100.00;101405.81;5060004;28;20528;-84
2022/07/22 00:50:42;;;;;;;19.20;9.82;;;;;;;16.51;100.00;101392.94;5055692;28;20057;-81
2022/07/22 00:56:14;;;;;;;18.83;10.52;;;;;;;16.57;100.00;101400.97;5026127;28;20045;-84
2022/07/22 00:59:07;;;;;;;23.63;9.75;;;;;;;16.58;100.00;101407.88;5057350;28;20545;-84
2022/07/22 01:01:56;;;;;;;19.45;10.43;;;;;;;16.54;100.00;101411.09;5061629;28;20467;-84
2022/07/22 01:04:28;;;;;;;14.95;9.88;;;;;;;16.47;100.00;101389.84;5048617;28;20053;-83
2022/07/22 01:06:55;;;;;;;20.75;10.82;;;;;;;16.49;100.00;101402.88;5040367;28;20045;-84
2022/07/22 01:09:34;;;;;;;17.83;10.52;;;;;;;16.50;100.00;101399.22;5039829;28;20049;-83
2022/07/22 01:12:02;;;;;;;19.88;10.43;;;;;;;16.55;100.00;101402.13;5041611;28;20061;-82
2022/07/22 01:14:34;;;;;;;19.95;9.75;;;;;;;16.38;100.00;101384.78;5040151;28;20061;-84
2022/07/22 01:17:02;;;;;;;18.35;10.45;;;;;;;16.40;100.00;101383.59;5040486;28;20120;-84
2022/07/22 01:19:31;;;;;;;20.17;12.18;;;;;;;16.51;100.00;101406.97;5049315;28;20424;-84
2022/07/22 01:22:05;;;;;;;21.80;10.68;;;;;;;16.60;100.00;101411.19;5059085;28;20544;-84
2022/07/22 01:24:32;;;;;;;20.65;10.90;;;;;;;16.59;100.00;101400.78;5058722;28;20052;-84
2022/07/22 01:27:11;;;;;;;21.10;11.02;;;;;;;16.39;100.00;101374.03;5059375;28;20049;-80
2022/07/22 01:30:08;;;;;;;18.80;11.50;;;;;;;16.41;100.00;101384.44;5052385;28;20049;-83
2022/07/22 01:41:47;;;;;;;20.30;10.50;;;;;;;16.39;100.00;101370.56;5045741;28;20054;-81
2022/07/22 01:44:17;;;;;;;15.00;10.48;;;;;;;16.35;100.00;101377.19;5045381;28;20057;-83
2022/07/22 01:49:58;;;;;;;20.02;12.45;;;;;;;16.32;100.00;101373.09;5016748;28;20077;-82
2022/07/22 01:52:29;;;;;;;18.42;10.98;;;;;;;16.41;100.00;101376.50;5043613;28;20069;-83
2022/07/22 01:55:01;;;;;;;28.65;12.00;;;;;;;16.26;100.00;101368.50;5043889;28;20061;-83
2022/07/22 01:57:40;;;;;;;20.45;10.85;;;;;;;16.46;100.00;101390.00;5074377;23;20140;-80
2022/07/22 02:00:23;;;;;;;16.67;11.07;;;;;;;16.49;100.00;101387.84;5047023;28;20049;-79
2022/07/22 02:02:58;;;;;;;17.73;11.00;;;;;;;16.50;100.00;101397.41;5062706;28;20045;-81
2022/07/22 02:05:42;;;;;;;20.33;11.25;;;;;;;16.51;100.00;101387.66;5052186;28;20046;-81
2022/07/22 02:08:33;;;;;;;19.05;11.55;;;;;;;16.39;100.00;101365.28;5043650;28;20046;-81
2022/07/22 02:13:58;;;;;;;18.25;10.65;;;;;;;16.42;100.00;101380.78;5097946;23;20198;-83
2022/07/22 02:16:25;;;;;;;16.80;11.20;;;;;;;16.51;100.00;101385.03;5060481;28;20045;-83
2022/07/22 02:18:52;;;;;;;18.52;10.65;;;;;;;16.64;100.00;101390.53;5061266;28;20068;-81
2022/07/22 02:21:19;;;;;;;16.50;11.23;;;;;;;16.56;100.00;101393.22;5061022;28;20525;-82
2022/07/22 02:23:45;;;;;;;19.23;11.23;;;;;;;16.51;100.00;101392.94;5052973;28;20049;-84
2022/07/22 02:26:13;;;;;;;19.38;11.25;;;;;;;16.58;100.00;101397.31;5055935;28;20073;-83
2022/07/22 02:28:40;;;;;;;23.33;11.20;;;;;;;16.62;100.00;101391.69;5061123;28;20080;-84
2022/07/22 02:31:07;;;;;;;17.17;10.93;;;;;;;16.56;100.00;101387.94;5061586;28;20052;-83
2022/07/22 02:33:34;;;;;;;22.65;11.10;;;;;;;16.49;100.00;101387.84;5061098;28;20136;-84
2022/07/22 02:36:00;;;;;;;21.27;11.18;;;;;;;16.47;100.00;101386.38;5061916;28;20053;-84
2022/07/22 02:38:27;;;;;;;20.95;11.27;;;;;;;16.44;100.00;101390.19;5060580;28;20048;-81
2022/07/22 02:40:54;;;;;;;20.40;11.85;;;;;;;16.46;100.00;101388.19;5062613;28;20553;-84
2022/07/22 02:43:22;;;;;;;17.80;10.35;;;;;;;16.38;100.00;101390.06;5062210;28;20045;-83
2022/07/22 02:45:51;;;;;;;22.27;11.63;;;;;;;16.45;100.00;101386.53;5061251;28;20140;-85
2022/07/22 02:48:18;;;;;;;19.85;11.05;;;;;;;16.41;100.00;101395.81;5060874;28;20045;-84
2022/07/22 02:50:46;;;;;;;16.00;11.18;;;;;;;16.40;100.00;101385.41;5054957;28;20049;-84
2022/07/22 02:53:13;;;;;;;21.08;12.50;;;;;;;16.39;100.00;101391.69;5061049;28;20041;-84
2022/07/22 02:55:40;;;;;;;18.33;11.30;;;;;;;16.40;100.00;101382.78;5060910;28;20132;-83
2022/07/22 02:58:08;;;;;;;18.98;11.85;;;;;;;16.35;100.00;101390.41;5061678;28;20101;-84
2022/07/22 03:00:38;;;;;;;21.70;11.88;;;;;;;16.36;100.00;101382.31;5061826;28;20089;-81
2022/07/22 03:03:05;;;;;;;19.83;11.75;;;;;;;16.37;100.00;101383.97;5066800;28;20131;-82
2022/07/22 03:05:32;;;;;;;20.33;11.65;;;;;;;16.42;100.00;101397.47;5071723;28;20079;-83
2022/07/22 03:07:58;;;;;;;17.95;10.98;;;;;;;16.39;100.00;101384.59;5063044;28;20077;-82
2022/07/22 03:10:25;;;;;;;20.42;11.90;;;;;;;16.39;100.00;101386.41;5068609;28;20073;-82
2022/07/22 03:12:52;;;;;;;16.90;11.45;;;;;;;16.36;100.00;101386.78;5070075;28;20041;-83
2022/07/22 03:15:18;;;;;;;20.98;12.23;;;;;;;16.35;100.00;101387.75;5063223;28;20073;-83
2022/07/22 03:17:47;;;;;;;20.38;11.30;;;;;;;16.29;100.00;101385.81;5060928;28;20063;-83
2022/07/22 03:20:13;;;;;;;23.30;12.00;;;;;;;16.31;100.00;101389.94;5060766;28;20084;-82
2022/07/22 03:22:40;;;;;;;17.65;12.57;;;;;;;16.35;100.00;101390.41;5060424;28;20045;-84
2022/07/22 03:25:07;;;;;;;19.65;12.07;;;;;;;16.34;100.00;101394.03;5059900;28;20087;-84
2022/07/22 03:27:34;;;;;;;15.60;11.35;;;;;;;16.29;100.00;101384.00;5059626;28;20088;-83
2022/07/22 03:30:01;;;;;;;18.50;11.32;;;;;;;16.27;100.00;101389.47;5060380;28;20500;-84
2022/07/22 03:32:27;;;;;;;19.70;11.93;;;;;;;16.32;100.00;101375.72;5059700;28;20135;-84
2022/07/22 03:34:55;;;;;;;18.23;11.68;;;;;;;16.35;100.00;101380.66;5060184;28;20056;-83
2022/07/22 03:37:22;;;;;;;18.38;11.70;;;;;;;16.35;100.00;101371.91;5061593;28;20091;-83
2022/07/22 03:39:50;;;;;;;20.10;12.15;;;;;;;16.40;100.00;101377.50;5061061;28;20517;-83
2022/07/22 03:42:16;;;;;;;17.80;11.65;;;;;;;16.33;100.00;101374.72;5060891;28;20045;-82
2022/07/22 03:44:43;;;;;;;20.20;12.45;;;;;;;16.31;100.00;101378.53;5056547;28;20087;-84
2022/07/22 03:47:10;;;;;;;21.13;12.55;;;;;;;16.27;100.00;101375.44;5040065;28;20096;-85
2022/07/22 03:49:36;;;;;;;17.98;11.98;;;;;;;16.26;100.00;101377.25;5040407;28;20061;-82
2022/07/22 03:52:05;;;;;;;17.65;11.35;;;;;;;16.29;100.00;101384.00;5041090;28;20049;-82
2022/07/22 03:54:31;;;;;;;20.15;12.07;;;;;;;16.25;100.00;101380.88;5039976;28;20129;-83
2022/07/22 03:56:58;;;;;;;19.08;12.52;;;;;;;16.24;100.00;101371.31;5041657;28;20049;-83
2022/07/22 03:59:25;;;;;;;15.73;10.63;;;;;;;16.26;100.00;101384.34;5049876;28;20067;-85
2022/07/22 04:01:54;;;;;;;17.35;11.32;;;;;;;16.30;100.00;101384.81;5062426;28;20478;-81
2022/07/22 04:04:20;;;;;;;18.40;11.27;;;;;;;16.31;100.00;101373.25;5061784;28;20048;-83
2022/07/22 04:06:47;;;;;;;17.38;10.50;;;;;;;16.27;100.00;101375.44;5064656;28;20053;-83
2022/07/22 04:09:15;;;;;;;21.67;10.50;;;;;;;16.27;100.00;101380.72;5064128;28;20052;-83
2022/07/22 04:11:42;;;;;;;18.40;10.20;;;;;;;16.26;100.00;101371.16;5064200;28;20102;-84
2022/07/22 04:14:08;;;;;;;13.68;10.10;;;;;;;16.23;100.00;101382.88;5061664;28;20077;-84
2022/07/22 04:16:35;;;;;;;15.70;10.30;;;;;;;16.24;100.00;101375.78;5058873;28;20208;-84
2022/07/22 04:19:02;;;;;;;18.13;9.68;;;;;;;16.25;100.00;101383.53;5059720;28;20044;-84
2022/07/22 04:21:29;;;;;;;14.85;9.57;;;;;;;16.27;100.00;101384.19;5059503;28;20049;-81
2022/07/22 04:23:59;;;;;;;17.33;9.27;;;;;;;16.29;100.00;101376.09;5058651;28;20072;-83
2022/07/22 04:26:27;;;;;;;14.52;9.38;;;;;;;16.29;100.00;101369.97;5058739;28;20092;-84
2022/07/22 04:28:54;;;;;;;16.73;9.40;;;;;;;16.30;100.00;101376.91;5059187;28;20060;-83
2022/07/22 04:31:20;;;;;;;14.07;8.95;;;;;;;16.37;100.00;101375.22;5057403;28;20578;-84
2022/07/22 04:33:47;;;;;;;14.32;8.88;;;;;;;16.33;100.00;101374.72;5058682;28;20091;-83
2022/07/22 04:36:14;;;;;;;18.13;9.32;;;;;;;16.31;100.00;101368.81;5042299;28;20125;-84
2022/07/22 04:38:41;;;;;;;13.60;9.25;;;;;;;16.35;100.00;101374.56;5038281;28;20080;-85
2022/07/22 04:41:07;;;;;;;15.32;9.15;;;;;;;16.37;100.00;101377.84;5039353;28;20102;-81
2022/07/22 04:43:35;;;;;;;21.17;10.25;;;;;;;16.31;100.00;101378.53;5038394;28;20052;-82
2022/07/22 04:46:03;;;;;;;15.13;9.80;;;;;;;16.38;100.00;101388.25;5037992;28;20128;-83
2022/07/22 04:48:30;;;;;;;13.88;9.60;;;;;;;16.36;100.00;101371.75;5037887;28;20049;-84
2022/07/22 04:51:00;;;;;;;14.27;8.95;;;;;;;16.39;100.00;101378.50;5045031;28;20080;-85
2022/07/22 04:53:27;;;;;;;14.45;9.25;;;;;;;16.46;100.00;101382.91;5058733;28;20098;-85
2022/07/22 04:55:54;;;;;;;15.73;9.25;;;;;;;16.44;100.00;101381.44;5058468;28;20077;-87
2022/07/22 04:58:21;;;;;;;16.13;10.02;;;;;;;16.37;100.00;101378.66;5058166;28;20060;-85
2022/07/22 05:00:52;;;;;;;14.40;9.18;;;;;;;16.52;100.00;101391.94;5058093;28;20091;-83
2022/07/22 05:13:08;;;;;;;17.45;9.98;;;;;;;16.59;100.00;101390.22;4902344;29;20108;-85
2022/07/22 05:27:21;;;;;;;15.85;10.63;;;;;;;16.47;100.00;101362.59;4966389;28;20050;-82
2022/07/22 05:29:54;;;;;;;15.45;10.35;;;;;;;16.53;100.00;101364.53;5039260;28;20155;-82
2022/07/22 05:33:10;;;;;;;;;;;;;;;;;;;;;
2022/07/22 05:38:37;;;;;;;18.52;10.00;;;;;;;16.58;100.00;101354.22;5014820;28;20050;-83
2022/07/22 05:41:49;;;;;;;15.98;9.23;;;;;;;16.78;100.00;101384.50;5020739;28;20046;-82
2022/07/22 05:49:50;;;;;;;17.42;10.23;;;;;;;16.90;100.00;101385.72;3730062;26;20053;-80
2022/07/22 05:52:22;;;;;;;14.68;8.80;;;;;;;16.84;100.00;101385.59;5055225;28;20562;-81
2022/07/22 05:54:49;;;;;;;15.80;8.85;;;;;;;16.94;100.00;101366.84;5056014;28;20045;-80
2022/07/22 05:57:27;;;;;;;14.02;8.90;;;;;;;17.30;99.96;101381.03;5051294;28;20517;-81
2022/07/22 06:00:19;;;;;;;14.07;9.23;;;;;;;17.22;99.09;101359.94;5054783;28;20068;-81
2022/07/22 06:05:19;;;;;;;16.17;9.23;;;;;;;17.74;99.09;101381.03;5009571;28;20548;-79
2022/07/22 06:07:46;;;;;;;15.88;10.50;;;;;;;17.45;98.41;101373.91;5011665;28;20145;-79
2022/07/22 06:10:12;;;;;;;19.73;12.20;;;;;;;17.40;99.21;101388.69;5011296;28;20125;-79
2022/07/22 06:12:39;;;;;;;18.15;11.45;;;;;;;17.27;98.95;101378.72;5014474;28;20091;-80
2022/07/22 06:15:07;;;;;;;19.70;12.27;;;;;;;17.03;99.65;101384.25;5005914;28;20125;-79
2022/07/22 06:17:33;;;;;;;18.92;11.95;;;;;;;16.85;100.00;101379.31;4993676;28;20047;-80
2022/07/22 06:20:00;;;;;;;18.30;11.10;;;;;;;16.70;100.00;101387.19;4996203;28;20502;-78
2022/07/22 06:22:28;;;;;;;13.75;8.75;;;;;;;16.58;98.93;101391.22;4993358;28;20085;-79
2022/07/22 06:24:54;;;;;;;11.90;7.47;;;;;;;16.55;98.57;101386.28;5002547;28;20535;-80
2022/07/22 06:27:21;;;;;;;14.32;7.03;;;;;;;16.67;97.95;101384.09;5013990;28;20054;-80
2022/07/22 06:29:48;;;;;;;10.05;6.13;;;;;;;16.29;96.10;101380.53;5017597;28;20050;-81
2022/07/22 06:32:15;;;;;;;11.65;6.80;;;;;;;16.15;96.93;101374.19;5003930;28;20082;-80
2022/07/22 06:34:41;;;;;;;15.43;6.97;;;;;;;16.23;96.80;101382.06;5007428;28;20074;-81
2022/07/22 06:37:08;;;;;;;12.48;5.88;;;;;;;16.25;96.16;101372.16;5015082;28;20046;-80
2022/07/22 06:39:36;;;;;;;15.02;6.75;;;;;;;16.34;96.59;101375.56;5018214;28;20053;-80
2022/07/22 06:42:03;;;;;;;12.05;6.15;;;;;;;16.41;96.32;101368.56;5025039;28;20053;-79
2022/07/22 06:44:30;;;;;;;9.93;4.90;;;;;;;16.55;94.81;101371.25;5011593;28;20094;-81
2022/07/22 06:46:56;;;;;;;10.02;5.03;;;;;;;16.55;93.62;101370.44;5003211;28;20137;-79
2022/07/22 06:49:23;;;;;;;10.63;5.00;;;;;;;16.67;93.23;101374.34;5002140;28;20086;-79
2022/07/22 06:51:50;;;;;;;12.25;5.40;;;;;;;16.69;93.09;101366.22;5016422;28;20493;-79
2022/07/22 06:54:17;;;;;;;12.20;5.43;;;;;;;16.66;92.95;101367.41;5019596;28;20049;-81
2022/07/22 06:56:45;;;;;;;9.98;4.68;;;;;;;16.65;93.01;101375.50;5016949;28;20419;-80
2022/07/22 06:59:18;;;;;;;6.78;4.68;;;;;;;16.70;92.54;101368.69;5011593;28;20054;-79
2022/07/22 07:01:44;;;;;;;8.77;4.80;;;;;;;16.75;92.21;101376.91;5007771;28;20061;-76
2022/07/22 07:04:11;;;;;;;11.05;4.43;;;;;;;16.68;92.16;101362.78;5013482;28;20491;-77
2022/07/22 07:06:38;;;;;;;11.55;4.50;;;;;;;16.66;91.45;101367.41;5013399;28;20484;-76
2022/07/22 07:09:04;;;;;;;6.25;4.25;;;;;;;16.79;91.37;101378.22;5014092;28;20088;-77
2022/07/22 07:11:31;;;;;;;6.85;4.13;;;;;;;16.72;91.54;101369.34;5013762;28;20090;-78
2022/07/22 07:14:02;;;;;;;9.10;4.55;;;;;;;16.94;91.36;101370.31;5009527;28;20133;-76
2022/07/22 07:16:29;;;;;;;7.40;4.50;;;;;;;16.99;90.85;101375.06;4994608;28;20117;-77
2022/07/22 07:18:56;;;;;;;12.32;4.88;;;;;;;17.04;90.81;101372.69;4994305;28;20137;-79
2022/07/22 07:21:22;;;;;;;8.50;4.30;;;;;;;16.97;90.57;101374.44;4994369;28;20477;-77
2022/07/22 07:23:49;;;;;;;10.10;4.57;;;;;;;17.15;90.42;101372.25;4994156;28;20133;-77
2022/07/22 07:26:16;;;;;;;8.30;4.63;;;;;;;17.31;90.51;101371.25;4993960;28;20137;-78
2022/07/22 07:28:43;;;;;;;8.27;4.65;;;;;;;17.43;89.53;101365.34;4993782;28;20601;-77
2022/07/22 07:31:12;;;;;;;9.65;4.90;;;;;;;17.37;89.58;101368.72;4994388;28;20137;-77
2022/07/22 07:33:40;;;;;;;8.05;4.60;;;;;;;17.59;89.89;101362.47;4993949;28;20058;-77
2022/07/22 07:36:07;;;;;;;9.85;5.00;;;;;;;17.54;89.56;101362.22;4994276;28;20086;-77
2022/07/22 07:38:35;;;;;;;11.02;4.75;;;;;;;17.65;88.68;101366.25;4993896;28;20177;-77
2022/07/22 07:41:01;;;;;;;8.50;4.55;;;;;;;17.77;88.36;101361.31;4994266;28;20057;-75
2022/07/22 07:43:28;;;;;;;9.77;5.13;;;;;;;17.54;89.42;101366.69;4993907;28;20486;-77
2022/07/22 07:45:56;;;;;;;14.85;5.30;;;;;;;17.85;89.24;101364.69;4993334;28;20082;-77
2022/07/22 07:48:24;;;;;;;11.38;5.05;;;;;;;18.00;87.61;101361.97;4992744;28;20463;-80
2022/07/22 07:50:51;;;;;;;9.02;5.10;;;;;;;17.76;87.00;101372.91;4993838;28;20055;-78
2022/07/22 07:53:18;;;;;;;9.50;4.80;;;;;;;17.98;87.09;101377.22;4993556;28;20149;-78
2022/07/22 07:55:45;;;;;;;9.68;5.25;;;;;;;17.94;86.48;101368.03;4993898;28;20082;-77
2022/07/22 07:58:13;;;;;;;11.05;5.05;;;;;;;18.19;86.61;101371.97;4992567;28;20129;-77
2022/07/22 08:00:42;;;;;;;9.13;4.70;;;;;;;18.29;85.48;101368.19;4993487;28;20137;-76
2022/07/22 08:03:09;;;;;;;9.63;5.00;;;;;;;18.34;83.94;101371.09;4993649;28;20046;-77
2022/07/22 08:05:39;;;;;;;9.77;5.05;;;;;;;18.11;86.47;101381.84;4993097;28;20085;-77
2022/07/22 08:08:07;;;;;;;16.45;5.15;;;;;;;18.39;85.32;101361.59;4993536;28;20479;-77
2022/07/22 08:10:34;;;;;;;9.65;5.15;;;;;;;18.46;82.56;101361.63;4994015;28;20142;-78
2022/07/22 08:13:01;;;;;;;8.57;5.18;;;;;;;18.66;83.33;101346.75;4994525;28;20113;-76
2022/07/22 08:15:29;;;;;;;10.98;5.40;;;;;;;18.51;83.53;101354.75;4993680;28;20081;-78
2022/07/22 08:17:56;;;;;;;9.15;5.10;;;;;;;19.00;82.81;101361.88;4996095;28;20569;-77
2022/07/22 08:20:25;;;;;;;12.70;5.55;;;;;;;19.07;82.34;101354.81;4997956;28;20047;-78
2022/07/22 08:22:53;;;;;;;10.38;5.57;;;;;;;19.04;81.36;101364.97;5000396;28;20422;-77
2022/07/22 08:25:21;;;;;;;10.15;6.22;;;;;;;19.12;81.17;101356.88;4999069;28;20046;-78
2022/07/22 08:27:47;;;;;;;9.73;6.05;;;;;;;19.31;80.42;101356.19;5000190;28;20101;-79
2022/07/22 08:30:14;;;;;;;8.85;5.57;;;;;;;19.42;80.36;101362.75;4995787;28;20097;-78
2022/07/22 08:32:41;;;;;;;11.45;6.20;;;;;;;19.07;81.21;101369.91;4997716;28;20077;-79
2022/07/22 08:35:09;;;;;;;17.38;7.63;;;;;;;19.12;81.75;101359.53;4995190;28;20100;-78
2022/07/22 08:37:37;;;;;;;9.77;6.43;;;;;;;19.71;80.82;101361.72;4996692;28;20058;-79
2022/07/22 08:40:10;;;;;;;8.07;5.80;;;;;;;19.75;78.09;101355.00;4997022;28;20388;-77
2022/07/22 08:42:38;;;;;;;10.00;6.47;;;;;;;19.83;79.39;101360.13;4997828;28;20050;-78
2022/07/22 08:45:06;;;;;;;11.98;6.68;;;;;;;19.91;78.65;101359.09;4996867;28;20415;-79
2022/07/22 08:47:33;;;;;;;10.95;7.32;;;;;;;20.12;77.86;101348.34;4995781;28;20057;-79
2022/07/22 08:50:00;;;;;;;12.50;7.63;;;;;;;19.96;78.07;101349.53;4998435;28;20054;-78
2022/07/22 08:52:26;;;;;;;12.13;8.05;;;;;;;20.08;78.55;101347.94;4998595;28;20121;-80
2022/07/22 08:54:53;;;;;;;13.80;7.78;;;;;;;20.17;77.32;101346.72;4995541;28;20082;-77
2022/07/22 08:57:21;;;;;;;12.60;7.70;;;;;;;20.03;77.53;101336.25;4995263;28;20054;-78
2022/07/22 08:59:53;;;;;;;12.48;7.32;;;;;;;20.66;77.70;101345.56;4994441;28;20421;-78
2022/07/22 09:02:21;;;;;;;13.50;8.20;;;;;;;20.43;75.49;101342.47;4993271;28;20058;-79
2022/07/22 09:04:54;;;;;;;11.73;8.15;;;;;;;20.46;76.15;101342.91;4992741;28;20132;-78
2022/07/22 09:07:34;;;;;;;12.65;8.55;;;;;;;20.73;75.17;101346.41;4994458;28;20133;-78
2022/07/22 09:10:02;;;;;;;16.77;9.25;;;;;;;21.19;76.32;101359.63;4993658;28;20046;-78
2022/07/22 09:12:32;;;;;;;12.40;9.20;;;;;;;21.38;73.08;101355.28;4994347;28;20082;-78
2022/07/22 09:15:01;;;;;;;11.15;8.77;;;;;;;21.13;73.52;101341.00;5007656;28;20414;-79
2022/07/22 09:17:30;;;;;;;11.38;8.30;;;;;;;21.12;74.10;101350.84;5012640;28;20100;-77
2022/07/22 09:19:58;;;;;;;13.20;8.60;;;;;;;20.70;74.17;101338.00;5013409;28;20148;-78
2022/07/22 09:22:33;;;;;;;14.02;8.80;;;;;;;20.34;75.86;101341.81;5012428;28;20050;-79
2022/07/22 09:25:00;;;;;;;13.65;8.77;;;;;;;20.65;76.02;101338.63;5013004;28;20133;-78
2022/07/22 09:27:28;;;;;;;12.43;9.40;;;;;;;20.91;74.99;101337.75;5013881;28;20077;-79
2022/07/22 09:29:57;;;;;;;11.05;8.95;;;;;;;21.06;74.36;101334.88;5012743;28;20053;-77
2022/07/22 09:32:23;;;;;;;12.75;10.18;;;;;;;20.76;73.60;101334.53;5012846;28;20050;-78
2022/07/22 09:34:50;;;;;;;11.98;9.88;;;;;;;20.69;74.13;101333.72;5014098;28;20046;-79
2022/07/22 09:37:21;;;;;;;16.02;9.68;;;;;;;20.31;75.31;101336.13;5014109;28;20060;-78
2022/07/22 09:39:48;;;;;;;15.02;8.98;;;;;;;20.51;75.49;101345.75;5013456;28;20089;-79
2022/07/22 09:42:16;;;;;;;13.18;9.13;;;;;;;21.24;75.28;101352.91;5019070;28;20061;-80
2022/07/22 09:44:42;;;;;;;15.02;9.52;;;;;;;21.23;73.29;101352.09;5018141;28;20071;-80
2022/07/22 09:47:27;;;;;;;16.48;10.05;;;;;;;20.94;74.65;101352.50;5021520;28;20038;-77
2022/07/22 09:49:57;;;;;;;15.48;9.77;;;;;;;20.84;75.58;101340.44;5022240;28;20053;-78
2022/07/22 09:52:24;;;;;;;14.15;9.98;;;;;;;20.71;75.67;101344.97;5021002;28;20053;-77
2022/07/22 09:54:52;;;;;;;16.77;10.57;;;;;;;20.75;76.47;101346.19;5014572;28;20096;-79
2022/07/22 09:57:19;;;;;;;16.30;10.77;;;;;;;20.77;75.16;101339.63;5013945;28;20073;-80
2022/07/22 09:59:45;;;;;;;16.63;11.57;;;;;;;21.03;75.89;101335.28;5018412;28;20068;-80
2022/07/22 10:02:18;;;;;;;13.73;9.25;;;;;;;21.15;74.45;101330.97;5024468;28;20077;-80
2022/07/22 10:04:49;;;;;;;13.10;10.05;;;;;;;21.17;74.20;101321.75;5023433;28;20049;-80
2022/07/22 12:34:48;;;;;;;18.95;14.85;;;;;;;22.89;66.47;101224.69;5051200;28;20049;-82
2022/07/22 12:37:21;;;;;;;19.73;16.13;;;;;;;23.15;66.75;101202.22;5045985;28;20053;-81
2022/07/22 12:39:58;;;;;;;17.25;15.32;;;;;;;23.17;64.81;101216.13;5037014;28;20081;-82
2022/07/22 12:42:26;;;;;;;17.90;15.55;;;;;;;22.73;66.12;101210.03;5028127;28;20049;-79
2022/07/22 12:45:00;;;;;;;19.65;15.93;;;;;;;23.35;65.28;101213.44;5035449;28;20073;-83
2022/07/22 12:50:24;;;;;;;22.63;16.45;;;;;;;23.05;64.81;101191.25;4096323;23;20064;-81
2022/07/22 12:52:55;;;;;;;22.05;16.48;;;;;;;23.74;64.33;101196.03;5052596;28;20072;-81
2022/07/22 12:55:23;;;;;;;20.58;17.35;;;;;;;23.93;62.99;101214.69;5046759;28;20045;-84
2022/07/22 12:57:52;;;;;;;21.20;16.25;;;;;;;23.69;62.92;101181.72;5060035;28;20049;-81
2022/07/22 13:04:03;;;;;;;;;;;;;;;;;;;;;
2022/07/22 13:09:35;;;;;;;17.38;14.52;;;;;;;23.48;64.17;101165.19;5054763;28;20570;-84
2022/07/22 13:12:02;;;;;;;18.30;15.85;;;;;;;23.92;62.78;101181.78;5061922;28;20076;-82
2022/07/22 13:14:29;;;;;;;18.88;16.10;;;;;;;24.02;62.43;101167.84;5064643;28;20067;-83
2022/07/22 13:16:56;;;;;;;22.08;16.40;;;;;;;23.85;62.07;101158.88;5064272;28;20045;-82
2022/07/22 13:19:29;;;;;;;21.23;17.10;;;;;;;23.55;63.08;101161.63;5064370;28;20053;-84
2022/07/22 13:27:27;;;;;;;19.38;17.38;;;;;;;22.64;65.10;101151.91;5061116;28;20056;-83
2022/07/22 13:29:59;;;;;;;21.65;17.63;;;;;;;23.12;64.06;101171.44;5045918;28;20053;-83
2022/07/22 13:32:34;;;;;;;22.35;17.23;;;;;;;23.09;65.13;101145.19;5046321;28;20084;-85
2022/07/22 13:35:09;;;;;;;20.95;15.65;;;;;;;23.72;63.60;101166.06;5046191;28;20430;-83
2022/07/22 13:38:04;;;;;;;19.05;16.60;;;;;;;23.02;64.36;101175.69;5045618;28;20037;-84
2022/07/22 13:40:33;;;;;;;21.77;17.65;;;;;;;23.02;64.43;101155.16;5046362;28;20065;-84
2022/07/22 13:43:05;;;;;;;20.50;17.15;;;;;;;23.24;63.70;101171.47;5063140;28;20488;-82
2022/07/22 13:45:41;;;;;;;;;;;;;;;23.18;65.26;101161.69;5066224;28;20108;-84
2022/07/22 13:48:11;;;;;;;20.98;17.30;;;;;;;23.28;63.53;101127.25;5066189;28;19921;-84
2022/07/22 13:50:40;;;;;;;22.40;18.48;;;;;;;23.30;64.45;101133.19;5065776;28;20556;-84
2022/07/22 13:53:11;;;;;;;19.25;17.15;;;;;;;23.43;63.10;101138.34;5067680;28;20114;-81
2022/07/22 13:55:47;;;;;;;21.70;16.98;;;;;;;23.48;64.02;101129.66;5068107;28;20037;-81
2022/07/22 13:58:15;;;;;;;19.67;16.67;;;;;;;23.67;62.80;101149.09;5069313;28;20049;-82
2022/07/22 14:00:42;;;;;;;23.50;18.33;;;;;;;23.33;63.29;101145.28;5066874;28;20060;-86
2022/07/22 14:03:11;;;;;;;20.75;16.45;;;;;;;23.81;62.85;101137.97;5066242;28;20132;-82
2022/07/22 14:05:41;;;;;;;20.17;17.35;;;;;;;23.90;61.40;101141.13;5050790;28;20223;-82
2022/07/22 14:08:19;;;;;;;22.88;17.42;;;;;;;24.11;61.02;101150.41;5066524;28;20052;-83
2022/07/22 14:11:10;;;;;;;20.63;16.80;;;;;;;23.49;61.01;101124.06;5066088;28;20044;-84
2022/07/22 14:13:46;;;;;;;22.10;16.00;;;;;;;23.85;61.36;101145.53;5066727;28;20053;-83
2022/07/22 14:22:13;;;;;;;21.02;16.33;;;;;;;24.01;60.89;101148.31;5064958;28;20049;-86
2022/07/22 14:24:43;;;;;;;21.35;16.38;;;;;;;24.02;59.40;101125.91;5055984;28;20045;-85
2022/07/22 14:27:10;;;;;;;19.90;16.75;;;;;;;24.20;58.92;101153.53;5066593;28;20045;-83
2022/07/22 14:29:51;;;;;;;18.35;15.35;;;;;;;24.23;58.25;101123.66;5065612;28;20048;-83
2022/07/22 14:32:21;;;;;;;19.45;15.68;;;;;;;24.23;59.09;101129.00;5065432;28;20068;-83
2022/07/22 14:34:51;;;;;;;21.88;15.70;;;;;;;;;;5064906;28;20049;-81
2022/07/22 14:37:18;;;;;;;21.77;16.98;;;;;;;24.12;59.34;101142.16;5063871;28;20041;-80
2022/07/22 14:39:46;;;;;;;24.20;16.27;;;;;;;24.25;59.02;101142.97;5064229;28;20087;-83
2022/07/22 14:42:12;;;;;;;21.35;16.23;;;;;;;23.72;61.20;101125.97;5064116;28;20049;-83
2022/07/22 14:44:39;;;;;;;25.73;17.23;;;;;;;24.19;60.54;101138.53;5065807;28;20045;-86
2022/07/22 14:47:06;;;;;;;21.38;15.50;;;;;;;24.06;60.04;101128.91;5063117;28;20049;-84
2022/07/22 14:49:35;;;;;;;20.70;15.60;;;;;;;24.13;60.00;101146.44;5066273;28;20092;-87
2022/07/22 14:52:02;;;;;;;21.42;16.27;;;;;;;23.99;60.56;101147.75;5066816;28;20083;-83
2022/07/22 14:54:29;;;;;;;19.85;15.27;;;;;;;23.69;60.21;101114.94;5052471;28;20053;-83
2022/07/22 14:56:57;;;;;;;18.15;14.82;;;;;;;23.65;59.39;101103.09;5047479;28;20069;-85
2022/07/22 14:59:25;;;;;;;19.42;14.80;;;;;;;23.74;59.71;101105.19;5047583;28;20053;-84
2022/07/22 15:01:54;;;;;;;20.63;16.05;;;;;;;23.90;59.60;101103.69;5046941;28;20073;-83
2022/07/22 15:04:21;;;;;;;21.88;15.88;;;;;;;24.06;60.54;101113.69;5045500;28;20061;-83
2022/07/22 15:06:48;;;;;;;18.02;15.20;;;;;;;23.96;59.22;101115.31;5045598;28;20528;-84
2022/07/22 15:09:15;;;;;;;21.42;16.65;;;;;;;24.22;60.61;101116.69;5046721;28;20067;-82